Weather at Knoxville Downtown Island Airport

Public forecast

Using degrees Fahrenheit for public forecast. Weather courtesy of forecast.io.

Closest aviation weather report (METAR) to Knoxville Downtown Island Airport

Closest report is McGhee Tyson Airport, 10.9 nm (20.2 km) SSW. Retrieved 2021/01/16 09:53 UTC (1 hour ago):

KTYS 160953Z 21006KT 10SM BKN049 BKN070 OVC110 01/M02 A2967 RMK AO2 SLP048 T00111022

Closest aviation forecast (TAF) to Knoxville Downtown Island Airport

Closest forecast is McGhee Tyson Airport, 10.9 nm (20.2 km) SSW. Retrieved 2021/01/16 06:39 UTC (4 hours ago):

TAF KTYS 160536Z 1606/1706 23008KT P6SM BKN060 TEMPO 1606/1609 4SM -SHRASN BR OVC025 FM160900 22008KT 6SM -SHSN BR OVC020 FM161500 23013G20KT P6SM OVC019 PROB30 1615/1618 4SM -SHRASN BR OVC008 FM161900 26015G20KT P6SM BKN025 FM170000 24008KT P6SM BKN040